Time;durP1;ratioP1;P1;durP2;ratioP2;P2;SDS_P1;SDS_P2;PMS_P1;PMS_P2;Temp;Humidity;BMP_temperature;BMP_pressure;BME280_temperature;BME280_humidity;BME280_pressure;Samples;Min_cycle;Max_cycle;Signal;HPM_P1;HPM_P2
2023/05/18 00:01:57;;;;;;;128.02;51.42;;;;;;;14.58;100.00;98832.22;5070804;28;20534;-75
2023/05/18 00:04:22;;;;;;;117.75;51.95;;;;;;;14.61;100.00;98831.50;5069059;28;20025;-75
2023/05/18 00:06:55;;;;;;;118.55;51.13;;;;;;;14.45;100.00;98829.63;5055528;28;20035;-75
2023/05/18 00:09:23;;;;;;;118.68;51.50;;;;;;;14.58;100.00;98826.59;5050523;28;20024;-75
2023/05/18 00:11:49;;;;;;;126.40;50.05;;;;;;;14.46;100.00;98834.06;5049432;28;20483;-75
2023/05/18 00:14:15;;;;;;;118.28;49.05;;;;;;;14.58;100.00;98830.22;5049468;28;20420;-75
2023/05/18 00:16:40;;;;;;;122.50;53.05;;;;;;;14.62;100.00;98826.66;5054052;28;20028;-75
2023/05/18 00:19:06;;;;;;;125.15;49.75;;;;;;;14.58;100.00;98818.16;5069458;28;20396;-75
2023/05/18 00:21:32;;;;;;;113.38;49.63;;;;;;;14.71;100.00;98827.22;5067139;28;20040;-75
2023/05/18 00:23:58;;;;;;;98.13;45.38;;;;;;;14.66;100.00;98819.91;5069477;28;20025;-75
2023/05/18 00:26:23;;;;;;;119.60;50.20;;;;;;;14.74;100.00;98823.66;5070954;28;20028;-75
2023/05/18 00:28:49;;;;;;;106.97;47.97;;;;;;;14.76;100.00;98828.91;5074213;28;20028;-75
2023/05/18 00:31:15;;;;;;;114.50;49.33;;;;;;;14.62;100.00;98819.03;5072622;28;20024;-75
2023/05/18 00:33:40;;;;;;;124.78;50.85;;;;;;;14.71;100.00;98827.22;5073357;28;20106;-75
2023/05/18 00:36:06;;;;;;;127.45;50.72;;;;;;;14.76;100.00;98835.34;5064998;28;20033;-75
2023/05/18 00:38:31;;;;;;;110.05;49.05;;;;;;;14.74;100.00;98827.31;5054031;28;20036;-75
2023/05/18 00:40:57;;;;;;;99.45;45.92;;;;;;;14.79;100.00;98836.59;5054521;28;20036;-74
2023/05/18 00:43:22;;;;;;;109.38;46.70;;;;;;;14.76;100.00;98821.28;5073734;28;20031;-75
2023/05/18 00:45:48;;;;;;;100.13;45.50;;;;;;;14.80;100.00;98836.22;5073714;28;20403;-75
2023/05/18 00:48:13;;;;;;;115.70;50.88;;;;;;;14.83;100.00;98829.00;5072306;28;20032;-75
2023/05/18 00:50:39;;;;;;;120.63;49.63;;;;;;;14.78;100.00;98809.63;5073346;28;20035;-75
2023/05/18 00:53:05;;;;;;;111.72;49.13;;;;;;;14.79;100.00;98817.72;5070930;28;20107;-74
2023/05/18 00:55:30;;;;;;;108.03;47.13;;;;;;;14.84;100.00;98828.63;5070429;28;20447;-75
2023/05/18 00:57:57;;;;;;;98.03;47.85;;;;;;;14.83;100.00;98824.19;5068343;28;20025;-75
2023/05/18 01:00:23;;;;;;;118.85;47.58;;;;;;;14.83;100.00;98829.00;5073436;28;20407;-75
2023/05/18 01:02:49;;;;;;;103.00;45.83;;;;;;;14.80;100.00;98826.97;5073529;28;20025;-75
2023/05/18 01:05:16;;;;;;;102.85;47.70;;;;;;;14.80;100.00;98821.31;5069577;28;20127;-75
2023/05/18 01:07:42;;;;;;;111.53;47.95;;;;;;;14.81;100.00;98823.78;5054450;28;20403;-75
2023/05/18 01:10:09;;;;;;;114.47;48.10;;;;;;;14.80;100.00;98826.97;5073264;28;20029;-75
2023/05/18 01:12:44;;;;;;;124.97;49.85;;;;;;;14.64;100.00;98808.22;5072320;28;20037;-75
2023/05/18 01:15:14;;;;;;;114.13;49.92;;;;;;;14.70;100.00;98823.56;5071990;28;20054;-75
2023/05/18 01:17:59;;;;;;;132.43;52.42;;;;;;;14.67;100.00;98824.34;5073055;28;20035;-75
2023/05/18 01:20:44;;;;;;;120.18;49.92;;;;;;;14.63;100.00;98819.84;5073097;28;20116;-75
2023/05/18 01:23:47;;;;;;;106.22;42.55;;;;;;;14.63;100.00;98817.84;5067384;28;20036;-75
2023/05/18 01:26:28;;;;;;;100.50;44.50;;;;;;;14.35;100.00;98812.56;5056283;28;20479;-74
2023/05/18 01:28:57;;;;;;;102.30;44.58;;;;;;;14.23;100.00;98820.03;5072891;28;20039;-75
2023/05/18 01:31:22;;;;;;;99.40;44.13;;;;;;;14.33;100.00;98821.38;5071365;28;20039;-75
2023/05/18 01:33:48;;;;;;;102.53;44.78;;;;;;;13.94;100.00;98816.72;5051523;28;20056;-75
2023/05/18 01:36:13;;;;;;;107.80;52.90;;;;;;;14.03;100.00;98822.88;5052769;28;20033;-75
2023/05/18 01:38:39;;;;;;;156.40;94.32;;;;;;;14.02;100.00;98817.66;5052772;28;20025;-75
2023/05/18 01:41:31;;;;;;;133.70;88.20;;;;;;;14.02;100.00;98817.66;5059869;28;20166;-75
2023/05/18 01:44:03;;;;;;;103.22;63.95;;;;;;;13.58;100.00;98828.06;5070087;28;20052;-75
2023/05/18 01:46:51;;;;;;;80.82;40.42;;;;;;;13.74;100.00;98821.53;5071237;28;20400;-75
2023/05/18 01:49:30;;;;;;;62.65;35.03;;;;;;;13.50;100.00;98823.50;5070170;28;20036;-75
2023/05/18 01:52:01;;;;;;;61.08;34.17;;;;;;;13.66;100.00;98823.41;5072342;28;20064;-75
2023/05/18 01:54:26;;;;;;;52.08;30.83;;;;;;;13.77;100.00;98832.06;5072479;28;20032;-75
2023/05/18 01:56:54;;;;;;;64.07;31.67;;;;;;;13.77;100.00;98837.69;5071310;28;20056;-75
2023/05/18 01:59:22;;;;;;;59.58;31.75;;;;;;;13.75;100.00;98848.47;5072379;28;20081;-75
2023/05/18 02:01:48;;;;;;;61.55;34.35;;;;;;;13.64;100.00;98839.84;5072170;28;20036;-75
2023/05/18 02:04:14;;;;;;;68.80;33.35;;;;;;;13.70;100.00;98840.34;5072407;28;20407;-75
2023/05/18 02:06:39;;;;;;;73.60;35.45;;;;;;;13.79;100.00;98845.72;5069448;28;20059;-75
2023/05/18 02:09:05;;;;;;;68.03;35.67;;;;;;;14.02;100.00;98852.19;5052162;28;20033;-75
2023/05/18 02:11:30;;;;;;;84.97;40.45;;;;;;;14.09;100.00;98853.53;5051463;28;20098;-75
2023/05/18 02:13:56;;;;;;;96.63;40.00;;;;;;;14.22;100.00;98856.94;5052133;28;20036;-75
2023/05/18 02:16:21;;;;;;;87.28;41.00;;;;;;;14.21;100.00;98856.16;5051936;28;20139;-75
2023/05/18 02:18:47;;;;;;;94.15;42.53;;;;;;;14.24;100.00;98854.56;5052023;28;20028;-75
2023/05/18 02:21:13;;;;;;;90.15;41.88;;;;;;;14.29;100.00;98868.34;5055954;28;20032;-75
2023/05/18 02:23:40;;;;;;;81.18;38.78;;;;;;;14.33;100.00;98857.94;5065437;28;20423;-75
2023/05/18 02:26:05;;;;;;;89.40;42.28;;;;;;;14.38;100.00;98860.47;5070775;28;20024;-74
2023/05/18 02:28:31;;;;;;;126.65;42.17;;;;;;;14.21;100.00;98867.41;5070910;28;20455;-75
2023/05/18 02:31:10;;;;;;;118.10;43.50;;;;;;;14.33;100.00;98860.75;5070398;28;20043;-75
2023/05/18 02:33:39;;;;;;;91.53;40.27;;;;;;;14.36;100.00;98868.47;5070338;28;20024;-75
2023/05/18 02:36:12;;;;;;;98.45;40.28;;;;;;;14.35;100.00;98874.47;5071642;28;20036;-75
2023/05/18 02:38:40;;;;;;;99.20;40.80;;;;;;;14.38;100.00;98884.97;5071146;28;20085;-75
2023/05/18 02:41:06;;;;;;;91.93;39.80;;;;;;;14.41;100.00;98879.41;5059520;28;20047;-75
2023/05/18 02:43:32;;;;;;;78.55;38.05;;;;;;;14.47;100.00;98882.72;5070237;28;20044;-75
2023/05/18 02:45:57;;;;;;;89.32;37.20;;;;;;;14.42;100.00;98878.22;5070228;28;20035;-75
2023/05/18 02:48:23;;;;;;;76.63;33.45;;;;;;;14.37;100.00;98875.72;5070331;28;20027;-75
2023/05/18 02:50:49;;;;;;;95.93;39.65;;;;;;;14.13;100.00;98877.72;5069290;28;20020;-75
2023/05/18 02:53:14;;;;;;;75.75;37.95;;;;;;;14.07;100.00;98884.81;5059766;28;20055;-75
2023/05/18 02:55:40;;;;;;;125.53;39.47;;;;;;;14.08;100.00;98880.00;5070203;28;20028;-75
2023/05/18 02:58:06;;;;;;;87.50;38.03;;;;;;;14.02;100.00;98885.94;5069107;28;20036;-75
2023/05/18 03:00:32;;;;;;;93.03;38.97;;;;;;;14.21;100.00;98886.25;5071346;28;20033;-75
2023/05/18 03:02:59;;;;;;;107.60;37.80;;;;;;;14.25;100.00;98889.97;5070272;28;20028;-75
2023/05/18 03:05:25;;;;;;;82.88;36.20;;;;;;;14.31;100.00;98896.91;5071279;28;20020;-75
2023/05/18 03:07:52;;;;;;;86.40;38.03;;;;;;;14.32;100.00;98890.06;5071216;28;20036;-75
2023/05/18 03:10:18;;;;;;;75.50;38.05;;;;;;;14.35;100.00;98900.56;5070150;28;20024;-75
2023/05/18 03:12:44;;;;;;;68.72;37.63;;;;;;;14.40;100.00;98917.16;5062147;28;20024;-75
2023/05/18 03:15:10;;;;;;;77.47;41.17;;;;;;;14.38;100.00;98908.28;5068753;28;20124;-75
2023/05/18 03:17:36;;;;;;;99.00;41.15;;;;;;;14.45;100.00;98916.84;5071102;28;20035;-75
2023/05/18 03:20:05;;;;;;;106.38;41.25;;;;;;;14.45;100.00;98913.22;5069925;28;20036;-75
2023/05/18 03:22:31;;;;;;;105.97;44.30;;;;;;;14.48;100.00;98914.44;5055267;28;20044;-75
2023/05/18 03:24:56;;;;;;;116.80;42.70;;;;;;;14.45;100.00;98922.47;5059298;28;20025;-75
2023/05/18 03:27:24;;;;;;;92.85;42.92;;;;;;;14.49;100.00;98925.34;5070584;28;20033;-75
2023/05/18 03:29:51;;;;;;;105.78;42.88;;;;;;;14.45;100.00;98922.47;5071223;28;20104;-75
2023/05/18 03:32:17;;;;;;;100.13;42.55;;;;;;;14.45;100.00;98932.91;5068672;28;20037;-75
2023/05/18 03:34:44;;;;;;;97.22;42.42;;;;;;;14.37;100.00;98937.63;5070994;28;20046;-75
2023/05/18 03:37:09;;;;;;;113.10;42.92;;;;;;;14.37;100.00;98931.16;5071211;28;20470;-75
2023/05/18 03:39:35;;;;;;;114.15;42.00;;;;;;;14.30;100.00;98935.47;5069890;28;20020;-75
2023/05/18 03:42:00;;;;;;;126.40;46.90;;;;;;;14.26;100.00;98933.78;5070856;28;20383;-75
2023/05/18 03:44:26;;;;;;;96.07;42.28;;;;;;;14.16;100.00;98933.19;5070654;28;20534;-75
2023/05/18 03:46:52;;;;;;;114.72;43.55;;;;;;;14.16;100.00;98924.75;5069576;28;20480;-75
2023/05/18 03:49:17;;;;;;;114.18;41.88;;;;;;;14.24;100.00;98933.31;5069739;28;20025;-75
2023/05/18 03:51:43;;;;;;;118.03;41.53;;;;;;;14.24;100.00;98936.97;5074333;28;20414;-75
2023/05/18 03:54:08;;;;;;;111.10;43.95;;;;;;;14.16;100.00;98936.00;5073624;28;20451;-75
2023/05/18 03:56:34;;;;;;;142.38;43.13;;;;;;;14.25;100.00;98946.22;5074668;28;20052;-75
2023/05/18 03:58:59;;;;;;;167.40;44.15;;;;;;;14.21;100.00;98940.53;5073956;28;20032;-75
2023/05/18 04:01:25;;;;;;;178.43;38.03;;;;;;;14.26;100.00;98942.22;5073494;28;20422;-75
2023/05/18 04:03:50;;;;;;;114.38;39.85;;;;;;;14.30;100.00;98959.97;5073666;28;20051;-75
2023/05/18 04:06:16;;;;;;;202.23;43.17;;;;;;;14.22;100.00;98953.41;5074349;28;20028;-75
2023/05/18 04:08:42;;;;;;;152.65;43.33;;;;;;;14.29;100.00;98958.34;5072098;28;20024;-75
2023/05/18 04:11:07;;;;;;;187.85;43.22;;;;;;;14.21;100.00;98954.59;5074367;28;20024;-75
2023/05/18 04:13:36;;;;;;;126.03;41.95;;;;;;;14.22;100.00;98958.19;5073950;28;20218;-75
2023/05/18 04:16:05;;;;;;;100.75;39.63;;;;;;;14.19;100.00;98959.78;5074394;28;20043;-75
2023/05/18 04:18:31;;;;;;;115.90;44.08;;;;;;;14.23;100.00;98966.28;5072644;28;20093;-75
2023/05/18 04:20:56;;;;;;;96.10;40.55;;;;;;;14.29;100.00;98964.78;5070538;28;20388;-75
2023/05/18 04:23:22;;;;;;;128.93;42.67;;;;;;;14.36;100.00;98969.75;5060559;28;20033;-75
2023/05/18 04:25:48;;;;;;;192.35;40.97;;;;;;;14.35;100.00;98976.53;5057323;28;20025;-75
2023/05/18 04:28:13;;;;;;;134.27;41.17;;;;;;;14.31;100.00;98967.22;5059638;28;20098;-75
2023/05/18 04:30:39;;;;;;;129.02;43.10;;;;;;;14.40;100.00;98976.25;5072748;28;20028;-75
2023/05/18 04:33:05;;;;;;;206.57;95.05;;;;;;;14.43;100.00;98981.13;5071813;28;20436;-75
2023/05/18 04:35:31;;;;;;;178.88;100.30;;;;;;;14.48;100.00;98976.34;5054109;28;20086;-75
2023/05/18 04:37:57;;;;;;;139.88;71.40;;;;;;;14.46;100.00;98980.34;5057138;28;20116;-75
2023/05/18 04:40:24;;;;;;;173.00;94.85;;;;;;;14.49;100.00;98976.00;5073431;28;20031;-75
2023/05/18 04:42:49;;;;;;;124.47;57.35;;;;;;;14.56;100.00;98984.59;5073401;28;20597;-75
2023/05/18 04:45:18;;;;;;;119.63;42.42;;;;;;;14.57;100.00;98982.56;5064276;28;20124;-74
2023/05/18 04:47:52;;;;;;;108.40;44.03;;;;;;;14.63;100.00;98991.50;5062674;28;20031;-74
2023/05/18 04:50:18;;;;;;;142.80;59.55;;;;;;;14.64;100.00;98990.31;5062917;28;20035;-75
2023/05/18 04:52:47;;;;;;;129.02;62.13;;;;;;;14.59;100.00;98994.25;5059351;28;20040;-75
2023/05/18 04:55:30;;;;;;;114.38;46.97;;;;;;;14.60;100.00;98984.66;5056154;28;20029;-75
2023/05/18 04:57:56;;;;;;;95.18;40.60;;;;;;;14.57;100.00;98980.56;5057609;28;20040;-74
2023/05/18 05:00:25;;;;;;;135.75;58.03;;;;;;;14.67;100.00;98989.59;5072685;28;20024;-75
2023/05/18 05:02:51;;;;;;;98.93;43.22;;;;;;;14.43;100.00;98989.56;5073183;28;20438;-77
2023/05/18 05:05:17;;;;;;;90.88;40.80;;;;;;;14.52;100.00;98996.94;5071198;28;20173;-78
2023/05/18 05:07:43;;;;;;;87.90;39.63;;;;;;;14.51;100.00;98998.13;5062771;28;20025;-79
2023/05/18 05:10:09;;;;;;;86.38;40.10;;;;;;;14.34;100.00;99011.47;5067902;28;20502;-79
2023/05/18 05:12:38;;;;;;;85.93;39.78;;;;;;;14.42;100.00;99010.44;5057701;28;20035;-77
2023/05/18 05:15:04;;;;;;;77.18;38.85;;;;;;;14.54;100.00;99000.19;5057409;28;20040;-74
2023/05/18 05:17:30;;;;;;;76.18;38.10;;;;;;;14.55;100.00;98999.00;5072876;28;20089;-78
2023/05/18 05:19:55;;;;;;;76.43;39.30;;;;;;;14.67;100.00;99009.28;5061468;28;20060;-77
2023/05/18 05:22:21;;;;;;;87.53;38.17;;;;;;;14.62;100.00;99003.97;5066959;28;20132;-75
2023/05/18 05:24:46;;;;;;;72.82;37.47;;;;;;;14.76;100.00;99014.69;5066442;28;20039;-74
2023/05/18 05:27:12;;;;;;;70.95;38.33;;;;;;;14.82;100.00;99013.19;5067382;28;20040;-76
2023/05/18 05:29:37;;;;;;;71.13;35.97;;;;;;;14.79;100.00;99013.94;5061898;28;20040;-75
2023/05/18 05:32:03;;;;;;;76.20;37.65;;;;;;;14.84;100.00;98999.53;5066817;28;20033;-74
2023/05/18 05:34:29;;;;;;;77.75;38.08;;;;;;;14.90;100.00;99009.31;5069431;28;20028;-74
2023/05/18 05:36:55;;;;;;;74.43;40.13;;;;;;;14.87;100.00;99015.72;5066273;28;20071;-73
2023/05/18 05:39:20;;;;;;;78.25;42.42;;;;;;;14.89;100.00;99021.78;5067557;28;20493;-74
2023/05/18 05:41:45;;;;;;;72.97;40.10;;;;;;;14.83;100.00;99026.06;5069624;28;20028;-73
2023/05/18 05:44:11;;;;;;;73.85;38.22;;;;;;;14.89;100.00;99033.03;5067790;28;20049;-73
2023/05/18 05:46:36;;;;;;;63.67;35.47;;;;;;;14.87;100.00;99024.94;5066744;28;20032;-74
2023/05/18 05:49:02;;;;;;;60.28;32.20;;;;;;;14.98;100.00;99033.59;5057050;28;20488;-74
2023/05/18 05:51:28;;;;;;;59.35;31.70;;;;;;;14.85;100.00;99035.00;5067777;28;20098;-75
2023/05/18 05:53:53;;;;;;;49.65;27.48;;;;;;;14.92;100.00;99043.53;5068454;28;20028;-76
2023/05/18 05:56:19;;;;;;;46.15;25.75;;;;;;;14.97;100.00;99037.63;5054410;28;20643;-76
2023/05/18 05:58:45;;;;;;;52.60;27.00;;;;;;;14.93;100.00;99042.34;5068079;28;20044;-75
2023/05/18 06:01:10;;;;;;;58.25;27.48;;;;;;;14.94;100.00;99038.34;5067959;28;20036;-75
2023/05/18 06:03:36;;;;;;;56.35;29.25;;;;;;;14.83;100.00;99038.16;5069301;28;20097;-74
2023/05/18 06:06:01;;;;;;;51.05;28.33;;;;;;;14.66;100.00;99039.44;5062338;28;20040;-73
2023/05/18 06:08:27;;;;;;;55.40;28.02;;;;;;;14.70;100.00;99034.66;5059927;28;20031;-71
2023/05/18 06:10:53;;;;;;;53.10;26.88;;;;;;;14.80;100.00;99043.72;5064524;28;20558;-71
2023/05/18 06:13:19;;;;;;;55.10;28.08;;;;;;;14.80;100.00;99046.53;5053267;28;20109;-71
2023/05/18 06:15:45;;;;;;;46.60;25.88;;;;;;;14.64;100.00;99046.59;5065324;28;20090;-71
2023/05/18 06:18:10;;;;;;;51.42;29.58;;;;;;;14.80;100.00;99053.00;5056862;28;20036;-71
2023/05/18 06:20:36;;;;;;;48.42;26.00;;;;;;;14.84;100.00;99050.22;5066314;28;20028;-72
2023/05/18 06:23:01;;;;;;;42.92;25.75;;;;;;;14.60;100.00;99058.63;5068731;28;20025;-73
2023/05/18 06:25:27;;;;;;;49.55;30.83;;;;;;;14.51;100.00;99060.06;5068844;28;20495;-72
2023/05/18 06:27:52;;;;;;;69.25;42.53;;;;;;;14.51;100.00;99071.31;5057955;28;20037;-72
2023/05/18 06:30:18;;;;;;;57.20;32.90;;;;;;;14.56;100.00;99071.00;5065532;28;20032;-73
2023/05/18 06:32:43;;;;;;;60.85;34.45;;;;;;;14.75;100.00;99067.38;5063328;28;20131;-73
2023/05/18 06:35:09;;;;;;;61.67;28.42;;;;;;;14.85;100.00;99072.38;5065450;28;20101;-71
2023/05/18 06:37:34;;;;;;;47.60;26.90;;;;;;;14.80;100.00;99077.50;5067400;28;20123;-72
2023/05/18 06:40:00;;;;;;;51.53;27.60;;;;;;;14.68;100.00;99070.03;5065810;28;20481;-72
2023/05/18 06:42:25;;;;;;;44.97;25.80;;;;;;;14.89;100.00;99083.72;5068082;28;20029;-72
2023/05/18 06:44:51;;;;;;;58.15;35.97;;;;;;;14.93;100.00;99084.59;5068594;28;20074;-71
2023/05/18 06:47:16;;;;;;;48.35;27.83;;;;;;;14.78;100.00;99086.34;5059462;28;20032;-70
2023/05/18 06:49:42;;;;;;;40.53;24.05;;;;;;;14.55;100.00;99097.50;5057632;28;20082;-72
2023/05/18 06:52:08;;;;;;;47.65;26.90;;;;;;;14.34;100.00;99093.06;5069113;28;20119;-72
2023/05/18 06:54:35;;;;;;;43.30;23.98;;;;;;;14.30;100.00;99104.25;5066884;28;20036;-71
2023/05/18 06:57:01;;;;;;;54.42;34.28;;;;;;;14.29;100.00;99110.25;5068317;28;20544;-71
2023/05/18 06:59:26;;;;;;;86.70;51.25;;;;;;;14.36;100.00;99110.41;5067494;28;20040;-70
2023/05/18 07:01:52;;;;;;;52.28;26.63;;;;;;;14.22;100.00;99110.06;5057878;28;20028;-73
2023/05/18 07:04:20;;;;;;;46.22;26.00;;;;;;;14.24;100.00;99110.53;5060223;28;20032;-70
2023/05/18 07:06:46;;;;;;;32.70;21.38;;;;;;;14.13;100.00;99115.91;5054652;28;20032;-71
2023/05/18 07:09:11;;;;;;;40.38;22.55;;;;;;;14.16;100.00;99120.81;5056593;28;20495;-70
2023/05/18 07:11:39;;;;;;;30.95;21.65;;;;;;;14.22;100.00;99124.13;5059170;28;20173;-71
2023/05/18 07:14:04;;;;;;;32.40;22.70;;;;;;;14.28;100.00;99126.28;5059279;28;20028;-71
2023/05/18 07:16:30;;;;;;;27.42;18.75;;;;;;;14.20;100.00;99135.78;5062795;28;20039;-74
2023/05/18 07:18:57;;;;;;;29.92;18.48;;;;;;;14.25;100.00;99131.88;5069214;28;20035;-72
2023/05/18 07:21:23;;;;;;;24.55;17.30;;;;;;;14.23;100.00;99134.22;5062552;28;20035;-71
2023/05/18 07:23:49;;;;;;;28.27;20.05;;;;;;;14.23;100.00;99134.22;5068654;28;20024;-72
2023/05/18 07:26:14;;;;;;;38.45;28.48;;;;;;;14.34;100.00;99135.25;5072856;28;20029;-72
2023/05/18 07:28:40;;;;;;;34.42;26.40;;;;;;;14.40;100.00;99144.22;5074540;28;20058;-72
2023/05/18 07:31:06;;;;;;;31.52;19.52;;;;;;;14.45;100.00;99141.13;5072910;28;20415;-72
2023/05/18 07:33:31;;;;;;;36.08;24.98;;;;;;;14.51;100.00;99145.25;5073547;28;20125;-72
2023/05/18 07:35:57;;;;;;;45.58;28.80;;;;;;;14.49;100.00;99147.63;5073003;28;20024;-71
2023/05/18 07:38:22;;;;;;;35.03;24.33;;;;;;;14.57;100.00;99149.44;5073478;28;20032;-72
2023/05/18 07:40:48;;;;;;;36.92;29.27;;;;;;;14.55;100.00;99150.97;5073471;28;20043;-74
2023/05/18 07:43:13;;;;;;;37.97;31.08;;;;;;;14.48;100.00;99154.44;5074241;28;20067;-73
2023/05/18 07:45:41;;;;;;;33.03;25.10;;;;;;;14.55;100.00;99157.44;5074527;28;20407;-74
2023/05/18 07:48:07;;;;;;;32.28;22.20;;;;;;;14.62;100.00;99161.56;5073208;28;20048;-73
2023/05/18 07:50:33;;;;;;;43.50;36.05;;;;;;;14.71;100.00;99165.78;5074324;28;20047;-73
2023/05/18 07:52:59;;;;;;;39.95;26.23;;;;;;;14.58;100.00;99153.03;5068112;28;20032;-73
2023/05/18 07:55:25;;;;;;;67.97;46.08;;;;;;;14.45;100.00;99164.44;5059639;28;20024;-73
2023/05/18 07:57:51;;;;;;;60.22;37.53;;;;;;;14.45;100.00;99169.28;5070632;28;20107;-73
2023/05/18 08:00:17;;;;;;;61.78;38.60;;;;;;;14.50;100.00;99168.16;5072027;28;20086;-73
2023/05/18 08:02:46;;;;;;;184.38;125.03;;;;;;;14.51;100.00;99169.78;5066451;28;20032;-72
2023/05/18 08:05:11;;;;;;;68.88;36.72;;;;;;;14.42;100.00;99170.81;5053792;28;20021;-72
2023/05/18 08:07:37;;;;;;;47.05;28.70;;;;;;;14.56;100.00;99175.13;5067340;28;20028;-72
2023/05/18 08:10:04;;;;;;;39.70;23.33;;;;;;;14.42;100.00;99181.25;5068264;28;20043;-73
2023/05/18 08:12:29;;;;;;;41.40;23.27;;;;;;;14.43;100.00;99178.06;5071120;28;20032;-73
2023/05/18 08:14:55;;;;;;;29.83;19.33;;;;;;;14.44;100.00;99178.91;5070127;28;20490;-73
2023/05/18 08:17:21;;;;;;;28.52;19.65;;;;;;;14.43;100.00;99189.31;5070382;28;20036;-72
2023/05/18 08:19:47;;;;;;;26.02;17.83;;;;;;;14.59;100.00;99188.44;5070843;28;20476;-73
2023/05/18 08:22:13;;;;;;;30.50;18.55;;;;;;;14.60;100.00;99192.91;5068949;28;20066;-73
2023/05/18 08:24:38;;;;;;;24.67;16.55;;;;;;;14.70;100.00;99191.50;5068270;28;20032;-73
2023/05/18 08:27:07;;;;;;;25.55;16.13;;;;;;;14.83;100.00;99186.56;5071346;28;20039;-73
2023/05/18 08:29:32;;;;;;;21.73;15.57;;;;;;;14.98;100.00;99190.47;5071376;28;20521;-73
2023/05/18 08:31:58;;;;;;;26.92;15.20;;;;;;;15.06;100.00;99197.06;5066604;28;20033;-72
2023/05/18 08:34:24;;;;;;;18.08;13.32;;;;;;;15.13;100.00;99203.66;5062252;28;20039;-73
2023/05/18 08:36:49;;;;;;;17.55;12.73;;;;;;;15.01;100.00;99204.63;5064784;28;20473;-73
2023/05/18 08:39:15;;;;;;;15.90;12.20;;;;;;;15.08;100.00;99214.41;5067776;28;20062;-73
2023/05/18 08:41:54;;;;;;;16.67;11.52;;;;;;;15.13;100.00;99217.72;5063077;28;20032;-73
2023/05/18 08:44:21;;;;;;;14.73;10.88;;;;;;;15.12;100.00;99216.09;5051244;28;20103;-73
2023/05/18 08:46:50;;;;;;;16.77;11.48;;;;;;;15.10;100.00;99221.28;5050804;28;20475;-73
2023/05/18 08:49:20;;;;;;;15.43;11.85;;;;;;;15.25;100.00;99222.41;5055299;28;20550;-73
2023/05/18 08:51:51;;;;;;;15.48;10.95;;;;;;;15.24;100.00;99219.94;5056086;28;20123;-73
2023/05/18 08:54:21;;;;;;;20.02;10.80;;;;;;;15.43;100.00;99238.81;5059381;28;20032;-73
2023/05/18 08:56:47;;;;;;;13.25;9.95;;;;;;;15.55;100.00;99237.84;5070511;28;20055;-73
2023/05/18 08:59:22;;;;;;;17.65;10.68;;;;;;;15.57;100.00;99236.28;5070840;28;20083;-73
2023/05/18 09:01:47;;;;;;;12.38;10.07;;;;;;;15.65;100.00;99244.84;5058084;28;20103;-73
2023/05/18 09:04:14;;;;;;;13.32;10.05;;;;;;;15.70;100.00;99241.75;5062232;28;20032;-73
2023/05/18 09:06:40;;;;;;;15.27;9.82;;;;;;;15.64;100.00;99244.06;5065078;28;20556;-73
2023/05/18 09:09:06;;;;;;;11.35;9.82;;;;;;;15.73;100.00;99238.97;5060868;28;20033;-73
2023/05/18 09:11:33;;;;;;;16.50;9.98;;;;;;;15.77;100.00;99241.84;5056461;28;20111;-72
2023/05/18 09:13:59;;;;;;;13.98;8.43;;;;;;;15.78;100.00;99249.13;5057564;28;20062;-73
2023/05/18 09:16:25;;;;;;;13.32;8.82;;;;;;;15.80;100.00;99255.19;5062985;28;20122;-73
2023/05/18 09:18:51;;;;;;;17.60;8.73;;;;;;;15.89;100.00;99256.94;5069862;28;20036;-76
2023/05/18 09:21:16;;;;;;;16.08;8.48;;;;;;;15.84;100.00;99258.91;5060622;28;20071;-71
2023/05/18 09:23:44;;;;;;;12.38;7.15;;;;;;;15.90;97.36;99261.44;5060409;28;20033;-73
2023/05/18 09:26:12;;;;;;;12.88;8.65;;;;;;;15.93;98.03;99260.69;5058641;28;20064;-73
2023/05/18 09:28:40;;;;;;;11.15;7.20;;;;;;;16.05;96.95;99271.78;5062822;28;20041;-74
2023/05/18 09:31:07;;;;;;;11.02;7.50;;;;;;;16.23;93.91;99268.44;5066456;28;20521;-75
2023/05/18 09:33:38;;;;;;;17.08;12.15;;;;;;;16.40;91.64;99270.72;5068525;28;20028;-73
2023/05/18 09:36:08;;;;;;;22.90;14.48;;;;;;;16.53;91.32;99273.31;5063277;28;20045;-73
2023/05/18 09:38:39;;;;;;;10.63;7.88;;;;;;;16.58;92.60;99283.47;5068425;28;20550;-70
2023/05/18 09:41:13;;;;;;;13.13;7.68;;;;;;;16.59;92.46;99280.28;5067172;28;20037;-70
2023/05/18 09:43:40;;;;;;;9.85;7.75;;;;;;;16.63;92.58;99274.69;5067741;28;20514;-72
2023/05/18 09:46:07;;;;;;;13.32;8.10;;;;;;;16.73;93.16;99287.31;5062787;28;20035;-73
2023/05/18 09:48:35;;;;;;;10.07;8.27;;;;;;;16.74;92.58;99294.59;5051113;28;20033;-72
2023/05/18 09:51:02;;;;;;;9.20;7.60;;;;;;;16.65;92.09;99289.22;5059679;28;20074;-71
2023/05/18 09:53:28;;;;;;;11.35;7.80;;;;;;;16.83;91.32;99295.13;5070941;28;20548;-72
2023/05/18 09:55:53;;;;;;;9.00;7.50;;;;;;;16.60;90.33;99292.41;5060887;28;20037;-71
2023/05/18 09:58:19;;;;;;;9.10;6.43;;;;;;;16.44;90.19;99278.44;5057364;28;20399;-71
2023/05/18 10:00:50;;;;;;;11.98;7.32;;;;;;;16.54;89.92;99295.53;5070736;28;20479;-70
2023/05/18 10:03:21;;;;;;;9.07;6.93;;;;;;;16.49;87.74;99295.88;5075041;28;20059;-71
2023/05/18 10:05:48;;;;;;;9.80;7.25;;;;;;;16.42;89.89;99301.38;5064744;28;20126;-74
2023/05/18 10:08:14;;;;;;;9.85;7.93;;;;;;;16.42;89.39;99299.41;5061448;28;20063;-74
2023/05/18 10:10:45;;;;;;;11.07;6.95;;;;;;;16.49;88.83;99309.97;5060195;28;20052;-75
2023/05/18 10:13:19;;;;;;;9.93;7.35;;;;;;;16.63;89.08;99303.72;5071836;28;20459;-75
2023/05/18 10:15:57;;;;;;;13.48;7.80;;;;;;;16.63;89.67;99298.06;5064344;28;20024;-76
2023/05/18 10:18:31;;;;;;;15.27;8.30;;;;;;;16.75;90.12;99299.03;5064678;28;20090;-76
2023/05/18 10:20:58;;;;;;;11.52;7.15;;;;;;;16.88;86.99;99297.63;5056188;28;20518;-76
2023/05/18 10:23:30;;;;;;;17.55;7.88;;;;;;;16.92;88.45;99301.31;5058099;28;20025;-76
2023/05/18 10:25:56;;;;;;;11.45;8.18;;;;;;;16.96;86.62;99299.34;5058914;28;20039;-76
2023/05/18 10:28:31;;;;;;;12.60;7.63;;;;;;;17.09;85.07;99308.44;5053825;28;20020;-76
2023/05/18 10:30:58;;;;;;;11.05;6.38;;;;;;;17.00;84.33;99304.25;5062154;28;20060;-76
2023/05/18 10:33:26;;;;;;;9.85;5.90;;;;;;;16.79;80.91;99314.84;5049364;28;20016;-76
2023/05/18 10:35:53;;;;;;;12.95;7.65;;;;;;;16.76;82.31;99307.16;5058492;28;20091;-76
2023/05/18 10:38:22;;;;;;;9.38;6.80;;;;;;;16.91;82.01;99304.53;5054076;28;20052;-77
2023/05/18 10:40:50;;;;;;;12.05;7.70;;;;;;;17.00;82.91;99310.72;5050894;28;20016;-77
2023/05/18 10:43:19;;;;;;;12.63;7.20;;;;;;;16.97;80.87;99309.44;5054784;28;20115;-77
2023/05/18 10:45:58;;;;;;;11.65;7.32;;;;;;;16.87;81.48;99314.97;5054071;28;20031;-77
2023/05/18 10:48:24;;;;;;;11.23;7.63;;;;;;;16.82;84.00;99313.28;5049167;28;20491;-78
2023/05/18 10:50:53;;;;;;;11.43;6.90;;;;;;;16.89;82.98;99316.19;5049465;28;20064;-77
2023/05/18 10:53:25;;;;;;;10.93;7.50;;;;;;;17.13;82.23;99328.25;5050784;28;20043;-77
2023/05/18 10:55:52;;;;;;;9.95;6.93;;;;;;;17.07;82.13;99319.28;5060820;28;20501;-76
2023/05/18 10:58:20;;;;;;;6.65;5.90;;;;;;;16.92;79.59;99323.91;5057530;28;20021;-76
2023/05/18 11:00:50;;;;;;;13.27;8.23;;;;;;;16.66;84.92;99328.41;5065656;28;20020;-77
2023/05/18 11:03:16;;;;;;;14.75;6.75;;;;;;;16.78;82.28;99327.34;5064843;28;20017;-76
2023/05/18 11:06:01;;;;;;;11.35;7.93;;;;;;;16.80;84.40;99324.94;5058026;28;20032;-77
2023/05/18 11:08:27;;;;;;;12.95;6.82;;;;;;;16.79;82.49;99343.09;5049573;28;20087;-77
2023/05/18 11:11:22;;;;;;;6.70;5.63;;;;;;;16.70;82.15;99336.88;5056035;28;20059;-77